sensor_id;sensor_type;location;lat;lon;timestamp;temperature;humidity
14172;DHT22;7165;52.388;4.928;2023-05-24T00:02:06;8.10;99.90
14172;DHT22;7165;52.388;4.928;2023-05-24T00:04:33;8.00;99.90
14172;DHT22;7165;52.388;4.928;2023-05-24T00:07:06;8.00;99.90
14172;DHT22;7165;52.388;4.928;2023-05-24T00:09:33;8.00;99.90
14172;DHT22;7165;52.388;4.928;2023-05-24T00:11:59;8.00;99.90
14172;DHT22;7165;52.388;4.928;2023-05-24T00:14:26;8.00;99.90
14172;DHT22;7165;52.388;4.928;2023-05-24T00:16:52;8.00;99.90
14172;DHT22;7165;52.388;4.928;2023-05-24T00:19:19;8.00;99.90
14172;DHT22;7165;52.388;4.928;2023-05-24T00:21:46;8.00;99.90
14172;DHT22;7165;52.388;4.928;2023-05-24T00:24:14;8.00;99.90
14172;DHT22;7165;52.388;4.928;2023-05-24T00:26:42;8.00;99.90
14172;DHT22;7165;52.388;4.928;2023-05-24T00:29:09;8.00;99.90
14172;DHT22;7165;52.388;4.928;2023-05-24T00:31:35;8.00;99.90
14172;DHT22;7165;52.388;4.928;2023-05-24T00:34:02;8.00;99.90
14172;DHT22;7165;52.388;4.928;2023-05-24T00:36:28;8.00;99.90
14172;DHT22;7165;52.388;4.928;2023-05-24T00:38:55;8.00;99.90
14172;DHT22;7165;52.388;4.928;2023-05-24T00:41:23;8.00;99.90
14172;DHT22;7165;52.388;4.928;2023-05-24T00:43:50;8.00;99.90
14172;DHT22;7165;52.388;4.928;2023-05-24T00:46:17;8.00;99.90
14172;DHT22;7165;52.388;4.928;2023-05-24T00:48:44;7.90;99.90
14172;DHT22;7165;52.388;4.928;2023-05-24T00:51:12;7.90;99.90
14172;DHT22;7165;52.388;4.928;2023-05-24T00:53:39;7.90;99.90
14172;DHT22;7165;52.388;4.928;2023-05-24T00:56:06;7.90;99.90
14172;DHT22;7165;52.388;4.928;2023-05-24T00:58:35;7.90;99.90
14172;DHT22;7165;52.388;4.928;2023-05-24T01:01:02;7.90;99.90
14172;DHT22;7165;52.388;4.928;2023-05-24T01:03:29;7.90;99.90
14172;DHT22;7165;52.388;4.928;2023-05-24T01:05:55;7.90;99.90
14172;DHT22;7165;52.388;4.928;2023-05-24T01:08:30;7.90;99.90
14172;DHT22;7165;52.388;4.928;2023-05-24T01:11:03;7.90;99.90
14172;DHT22;7165;52.388;4.928;2023-05-24T01:13:33;8.00;99.90
14172;DHT22;7165;52.388;4.928;2023-05-24T01:16:04;8.10;99.90
14172;DHT22;7165;52.388;4.928;2023-05-24T01:18:33;8.10;99.90
14172;DHT22;7165;52.388;4.928;2023-05-24T01:21:05;8.10;99.90
14172;DHT22;7165;52.388;4.928;2023-05-24T01:23:40;8.20;99.90
14172;DHT22;7165;52.388;4.928;2023-05-24T01:26:27;8.30;99.90
14172;DHT22;7165;52.388;4.928;2023-05-24T01:28:58;8.30;99.90
14172;DHT22;7165;52.388;4.928;2023-05-24T01:31:25;8.30;99.90
14172;DHT22;7165;52.388;4.928;2023-05-24T01:33:52;8.40;99.90
14172;DHT22;7165;52.388;4.928;2023-05-24T01:36:18;8.40;99.90
14172;DHT22;7165;52.388;4.928;2023-05-24T01:38:45;8.40;99.90
14172;DHT22;7165;52.388;4.928;2023-05-24T01:41:14;8.50;99.90
14172;DHT22;7165;52.388;4.928;2023-05-24T01:43:46;8.40;99.90
14172;DHT22;7165;52.388;4.928;2023-05-24T01:46:17;8.40;99.90
14172;DHT22;7165;52.388;4.928;2023-05-24T01:48:51;8.40;99.90
14172;DHT22;7165;52.388;4.928;2023-05-24T01:51:20;8.40;99.90
14172;DHT22;7165;52.388;4.928;2023-05-24T01:53:48;8.30;99.90
14172;DHT22;7165;52.388;4.928;2023-05-24T01:56:15;8.30;99.90
14172;DHT22;7165;52.388;4.928;2023-05-24T01:58:44;8.30;99.90
14172;DHT22;7165;52.388;4.928;2023-05-24T02:01:11;8.40;99.90
14172;DHT22;7165;52.388;4.928;2023-05-24T02:03:39;8.40;99.90
14172;DHT22;7165;52.388;4.928;2023-05-24T02:06:06;8.40;99.90
14172;DHT22;7165;52.388;4.928;2023-05-24T02:08:34;8.40;99.90
14172;DHT22;7165;52.388;4.928;2023-05-24T02:11:01;8.40;99.90
14172;DHT22;7165;52.388;4.928;2023-05-24T02:13:28;8.30;99.90
14172;DHT22;7165;52.388;4.928;2023-05-24T02:15:54;8.30;99.90
14172;DHT22;7165;52.388;4.928;2023-05-24T02:18:21;8.20;99.90
14172;DHT22;7165;52.388;4.928;2023-05-24T02:20:49;8.20;99.90
14172;DHT22;7165;52.388;4.928;2023-05-24T02:23:16;8.10;99.90
14172;DHT22;7165;52.388;4.928;2023-05-24T02:25:42;8.20;99.90
14172;DHT22;7165;52.388;4.928;2023-05-24T02:28:09;8.10;99.90
14172;DHT22;7165;52.388;4.928;2023-05-24T02:30:35;8.10;99.90
14172;DHT22;7165;52.388;4.928;2023-05-24T02:33:02;8.10;99.90
14172;DHT22;7165;52.388;4.928;2023-05-24T02:35:29;8.10;99.90
14172;DHT22;7165;52.388;4.928;2023-05-24T02:37:58;8.10;99.90
14172;DHT22;7165;52.388;4.928;2023-05-24T02:40:25;8.10;99.90
14172;DHT22;7165;52.388;4.928;2023-05-24T02:42:52;8.20;99.90
14172;DHT22;7165;52.388;4.928;2023-05-24T02:45:19;8.20;99.90
14172;DHT22;7165;52.388;4.928;2023-05-24T02:47:45;8.20;99.90
14172;DHT22;7165;52.388;4.928;2023-05-24T02:50:12;8.20;99.90
14172;DHT22;7165;52.388;4.928;2023-05-24T02:52:38;8.20;99.90
14172;DHT22;7165;52.388;4.928;2023-05-24T02:55:07;8.20;99.90
14172;DHT22;7165;52.388;4.928;2023-05-24T02:57:34;8.20;99.90
14172;DHT22;7165;52.388;4.928;2023-05-24T03:00:02;8.20;99.90
14172;DHT22;7165;52.388;4.928;2023-05-24T03:02:29;8.10;99.90
14172;DHT22;7165;52.388;4.928;2023-05-24T03:04:58;8.20;99.90
14172;DHT22;7165;52.388;4.928;2023-05-24T03:07:24;8.20;99.90
14172;DHT22;7165;52.388;4.928;2023-05-24T03:09:51;8.20;99.90
14172;DHT22;7165;52.388;4.928;2023-05-24T03:12:19;8.10;99.90
14172;DHT22;7165;52.388;4.928;2023-05-24T03:14:45;8.20;99.90
14172;DHT22;7165;52.388;4.928;2023-05-24T03:17:12;8.10;99.90
14172;DHT22;7165;52.388;4.928;2023-05-24T03:19:38;8.10;99.90
14172;DHT22;7165;52.388;4.928;2023-05-24T03:22:06;8.10;99.90
14172;DHT22;7165;52.388;4.928;2023-05-24T03:24:32;8.10;99.90
14172;DHT22;7165;52.388;4.928;2023-05-24T03:26:59;8.00;99.90
14172;DHT22;7165;52.388;4.928;2023-05-24T03:29:28;8.00;99.90
14172;DHT22;7165;52.388;4.928;2023-05-24T03:31:54;8.00;99.90
14172;DHT22;7165;52.388;4.928;2023-05-24T03:34:21;8.00;99.90
14172;DHT22;7165;52.388;4.928;2023-05-24T03:36:47;7.90;99.90
14172;DHT22;7165;52.388;4.928;2023-05-24T03:39:14;7.90;99.90
14172;DHT22;7165;52.388;4.928;2023-05-24T03:41:41;7.90;99.90
14172;DHT22;7165;52.388;4.928;2023-05-24T03:44:07;7.90;99.90
14172;DHT22;7165;52.388;4.928;2023-05-24T03:46:36;7.80;99.90
14172;DHT22;7165;52.388;4.928;2023-05-24T03:49:02;7.80;99.90
14172;DHT22;7165;52.388;4.928;2023-05-24T03:51:29;7.80;99.90
14172;DHT22;7165;52.388;4.928;2023-05-24T03:53:55;7.80;99.90
14172;DHT22;7165;52.388;4.928;2023-05-24T03:56:22;7.80;99.90
14172;DHT22;7165;52.388;4.928;2023-05-24T03:58:49;7.80;99.90
14172;DHT22;7165;52.388;4.928;2023-05-24T04:01:16;7.80;99.90
14172;DHT22;7165;52.388;4.928;2023-05-24T04:03:45;7.80;99.90
14172;DHT22;7165;52.388;4.928;2023-05-24T04:06:12;7.90;99.90
14172;DHT22;7165;52.388;4.928;2023-05-24T04:08:38;8.00;99.90
14172;DHT22;7165;52.388;4.928;2023-05-24T04:11:05;8.10;99.90
14172;DHT22;7165;52.388;4.928;2023-05-24T04:13:31;8.20;99.90
14172;DHT22;7165;52.388;4.928;2023-05-24T04:15:58;8.40;99.90
14172;DHT22;7165;52.388;4.928;2023-05-24T04:18:24;8.50;99.90
14172;DHT22;7165;52.388;4.928;2023-05-24T04:20:52;8.70;99.90
14172;DHT22;7165;52.388;4.928;2023-05-24T04:23:19;8.80;99.90
14172;DHT22;7165;52.388;4.928;2023-05-24T04:25:46;8.90;99.90
14172;DHT22;7165;52.388;4.928;2023-05-24T04:28:13;8.90;99.90
14172;DHT22;7165;52.388;4.928;2023-05-24T04:30:39;9.00;99.90
14172;DHT22;7165;52.388;4.928;2023-05-24T04:33:06;9.00;99.90
14172;DHT22;7165;52.388;4.928;2023-05-24T04:35:32;9.00;99.90
14172;DHT22;7165;52.388;4.928;2023-05-24T04:38:01;9.10;99.90
14172;DHT22;7165;52.388;4.928;2023-05-24T04:40:27;9.10;99.90
14172;DHT22;7165;52.388;4.928;2023-05-24T04:42:54;9.10;99.90
14172;DHT22;7165;52.388;4.928;2023-05-24T04:45:20;9.20;99.90
14172;DHT22;7165;52.388;4.928;2023-05-24T04:47:47;9.30;99.90
14172;DHT22;7165;52.388;4.928;2023-05-24T04:50:14;9.40;99.90
14172;DHT22;7165;52.388;4.928;2023-05-24T04:52:40;9.40;99.90
14172;DHT22;7165;52.388;4.928;2023-05-24T04:55:08;9.50;99.90
14172;DHT22;7165;52.388;4.928;2023-05-24T04:57:35;9.60;99.90
14172;DHT22;7165;52.388;4.928;2023-05-24T05:00:02;9.70;99.90
14172;DHT22;7165;52.388;4.928;2023-05-24T05:02:31;9.80;99.90
14172;DHT22;7165;52.388;4.928;2023-05-24T05:04:58;9.90;99.90
14172;DHT22;7165;52.388;4.928;2023-05-24T05:07:25;10.00;99.90
14172;DHT22;7165;52.388;4.928;2023-05-24T05:09:51;10.10;99.90
14172;DHT22;7165;52.388;4.928;2023-05-24T05:12:19;10.20;99.90
14172;DHT22;7165;52.388;4.928;2023-05-24T05:14:46;10.30;99.90
14172;DHT22;7165;52.388;4.928;2023-05-24T05:17:12;10.40;99.90
14172;DHT22;7165;52.388;4.928;2023-05-24T05:19:39;10.60;99.90
14172;DHT22;7165;52.388;4.928;2023-05-24T05:22:06;10.70;99.90
14172;DHT22;7165;52.388;4.928;2023-05-24T05:24:32;10.80;99.90
14172;DHT22;7165;52.388;4.928;2023-05-24T05:26:59;10.90;99.90
14172;DHT22;7165;52.388;4.928;2023-05-24T05:29:26;10.90;99.90
14172;DHT22;7165;52.388;4.928;2023-05-24T05:31:53;11.00;99.90
14172;DHT22;7165;52.388;4.928;2023-05-24T05:34:20;11.10;99.90
14172;DHT22;7165;52.388;4.928;2023-05-24T05:36:46;11.20;99.90
14172;DHT22;7165;52.388;4.928;2023-05-24T05:39:13;11.30;99.90
14172;DHT22;7165;52.388;4.928;2023-05-24T05:41:40;11.40;99.90
14172;DHT22;7165;52.388;4.928;2023-05-24T05:44:08;11.60;99.90
14172;DHT22;7165;52.388;4.928;2023-05-24T05:46:36;11.70;99.90
14172;DHT22;7165;52.388;4.928;2023-05-24T05:49:03;11.80;99.90
14172;DHT22;7165;52.388;4.928;2023-05-24T05:51:29;11.90;99.90
14172;DHT22;7165;52.388;4.928;2023-05-24T05:53:56;12.00;99.90
14172;DHT22;7165;52.388;4.928;2023-05-24T05:56:23;12.10;99.90
14172;DHT22;7165;52.388;4.928;2023-05-24T05:58:49;12.10;99.90
14172;DHT22;7165;52.388;4.928;2023-05-24T06:01:16;12.20;99.90
14172;DHT22;7165;52.388;4.928;2023-05-24T06:03:43;12.30;99.90
14172;DHT22;7165;52.388;4.928;2023-05-24T06:06:10;12.50;99.90
14172;DHT22;7165;52.388;4.928;2023-05-24T06:08:36;12.50;99.90
14172;DHT22;7165;52.388;4.928;2023-05-24T06:11:05;12.50;99.90
14172;DHT22;7165;52.388;4.928;2023-05-24T06:13:31;12.60;99.90
14172;DHT22;7165;52.388;4.928;2023-05-24T06:15:58;12.70;99.90
14172;DHT22;7165;52.388;4.928;2023-05-24T06:18:25;12.80;99.90
14172;DHT22;7165;52.388;4.928;2023-05-24T06:20:56;12.80;99.90
14172;DHT22;7165;52.388;4.928;2023-05-24T06:23:22;12.90;99.90
14172;DHT22;7165;52.388;4.928;2023-05-24T06:25:49;13.00;99.90
14172;DHT22;7165;52.388;4.928;2023-05-24T06:28:15;13.20;99.90
14172;DHT22;7165;52.388;4.928;2023-05-24T06:30:42;13.30;99.90
14172;DHT22;7165;52.388;4.928;2023-05-24T06:33:08;13.40;99.90
14172;DHT22;7165;52.388;4.928;2023-05-24T06:35:35;13.40;99.90
14172;DHT22;7165;52.388;4.928;2023-05-24T06:38:03;13.40;99.90
14172;DHT22;7165;52.388;4.928;2023-05-24T06:40:30;13.40;99.90
14172;DHT22;7165;52.388;4.928;2023-05-24T06:42:56;13.50;99.90
14172;DHT22;7165;52.388;4.928;2023-05-24T06:45:23;13.50;99.90
14172;DHT22;7165;52.388;4.928;2023-05-24T06:47:50;13.70;99.90
14172;DHT22;7165;52.388;4.928;2023-05-24T06:50:17;13.80;99.90
14172;DHT22;7165;52.388;4.928;2023-05-24T06:52:43;14.10;99.90
14172;DHT22;7165;52.388;4.928;2023-05-24T06:55:11;14.20;99.90
14172;DHT22;7165;52.388;4.928;2023-05-24T06:57:38;14.30;99.90
14172;DHT22;7165;52.388;4.928;2023-05-24T07:00:05;14.30;99.90
14172;DHT22;7165;52.388;4.928;2023-05-24T07:02:36;14.20;99.90
14172;DHT22;7165;52.388;4.928;2023-05-24T07:05:03;14.20;99.90
14172;DHT22;7165;52.388;4.928;2023-05-24T07:07:30;14.40;99.90
14172;DHT22;7165;52.388;4.928;2023-05-24T07:09:57;14.50;99.90
14172;DHT22;7165;52.388;4.928;2023-05-24T07:12:25;14.50;99.90
14172;DHT22;7165;52.388;4.928;2023-05-24T07:14:52;14.50;99.90
14172;DHT22;7165;52.388;4.928;2023-05-24T07:17:20;14.60;99.90
14172;DHT22;7165;52.388;4.928;2023-05-24T07:19:46;14.60;99.90
14172;DHT22;7165;52.388;4.928;2023-05-24T07:22:13;14.70;99.90
14172;DHT22;7165;52.388;4.928;2023-05-24T07:24:40;14.60;99.90
14172;DHT22;7165;52.388;4.928;2023-05-24T07:27:06;14.60;99.90
14172;DHT22;7165;52.388;4.928;2023-05-24T07:29:35;14.50;99.90
14172;DHT22;7165;52.388;4.928;2023-05-24T07:32:01;14.60;99.90
14172;DHT22;7165;52.388;4.928;2023-05-24T07:34:28;14.60;99.90
14172;DHT22;7165;52.388;4.928;2023-05-24T07:36:55;14.70;99.90
14172;DHT22;7165;52.388;4.928;2023-05-24T07:39:24;15.00;99.90
14172;DHT22;7165;52.388;4.928;2023-05-24T07:41:51;15.20;99.90
14172;DHT22;7165;52.388;4.928;2023-05-24T07:44:18;15.40;99.90
14172;DHT22;7165;52.388;4.928;2023-05-24T07:46:47;15.50;99.90
14172;DHT22;7165;52.388;4.928;2023-05-24T07:49:13;15.50;99.90
14172;DHT22;7165;52.388;4.928;2023-05-24T07:51:40;15.30;99.90
14172;DHT22;7165;52.388;4.928;2023-05-24T07:54:06;15.30;99.90
14172;DHT22;7165;52.388;4.928;2023-05-24T07:56:33;15.50;99.90
14172;DHT22;7165;52.388;4.928;2023-05-24T07:59:00;15.60;99.90
14172;DHT22;7165;52.388;4.928;2023-05-24T08:01:29;15.70;99.90
14172;DHT22;7165;52.388;4.928;2023-05-24T08:03:57;15.70;99.90
14172;DHT22;7165;52.388;4.928;2023-05-24T08:06:23;15.90;99.90
14172;DHT22;7165;52.388;4.928;2023-05-24T08:08:50;15.80;99.90
14172;DHT22;7165;52.388;4.928;2023-05-24T08:11:16;15.70;99.90
14172;DHT22;7165;52.388;4.928;2023-05-24T08:13:43;15.60;99.90
14172;DHT22;7165;52.388;4.928;2023-05-24T08:16:10;15.50;99.90
14172;DHT22;7165;52.388;4.928;2023-05-24T08:18:36;15.50;99.90
14172;DHT22;7165;52.388;4.928;2023-05-24T08:21:04;15.40;99.90
14172;DHT22;7165;52.388;4.928;2023-05-24T08:23:32;15.40;99.90
14172;DHT22;7165;52.388;4.928;2023-05-24T08:25:58;15.30;99.90
14172;DHT22;7165;52.388;4.928;2023-05-24T08:28:25;15.20;99.90
14172;DHT22;7165;52.388;4.928;2023-05-24T08:30:52;15.00;99.90
14172;DHT22;7165;52.388;4.928;2023-05-24T08:33:18;14.90;99.90
14172;DHT22;7165;52.388;4.928;2023-05-24T08:35:47;15.00;99.90
14172;DHT22;7165;52.388;4.928;2023-05-24T08:38:15;15.40;99.90
14172;DHT22;7165;52.388;4.928;2023-05-24T08:40:41;15.90;99.90
14172;DHT22;7165;52.388;4.928;2023-05-24T08:43:08;16.30;99.90
14172;DHT22;7165;52.388;4.928;2023-05-24T08:45:36;16.40;99.90
14172;DHT22;7165;52.388;4.928;2023-05-24T08:48:03;16.40;99.90
14172;DHT22;7165;52.388;4.928;2023-05-24T08:50:30;16.50;99.90
14172;DHT22;7165;52.388;4.928;2023-05-24T08:52:58;16.50;99.90
14172;DHT22;7165;52.388;4.928;2023-05-24T08:55:28;16.30;99.90
14172;DHT22;7165;52.388;4.928;2023-05-24T08:57:54;16.10;99.90
14172;DHT22;7165;52.388;4.928;2023-05-24T09:00:21;15.90;99.90
14172;DHT22;7165;52.388;4.928;2023-05-24T09:02:48;15.80;99.90
14172;DHT22;7165;52.388;4.928;2023-05-24T09:05:15;15.70;99.90
14172;DHT22;7165;52.388;4.928;2023-05-24T09:07:42;15.80;99.90
14172;DHT22;7165;52.388;4.928;2023-05-24T09:10:09;16.10;99.90
14172;DHT22;7165;52.388;4.928;2023-05-24T09:12:37;16.40;99.90
14172;DHT22;7165;52.388;4.928;2023-05-24T09:15:04;16.80;99.90
14172;DHT22;7165;52.388;4.928;2023-05-24T09:17:31;17.10;99.90
14172;DHT22;7165;52.388;4.928;2023-05-24T09:19:59;17.40;99.90
14172;DHT22;7165;52.388;4.928;2023-05-24T09:22:26;17.50;99.90
14172;DHT22;7165;52.388;4.928;2023-05-24T09:24:56;17.80;99.90
14172;DHT22;7165;52.388;4.928;2023-05-24T09:27:24;18.00;99.90
14172;DHT22;7165;52.388;4.928;2023-05-24T09:29:52;18.10;99.90
14172;DHT22;7165;52.388;4.928;2023-05-24T09:32:21;18.30;99.90
14172;DHT22;7165;52.388;4.928;2023-05-24T09:34:50;18.60;99.90
14172;DHT22;7165;52.388;4.928;2023-05-24T09:37:17;18.80;99.90
14172;DHT22;7165;52.388;4.928;2023-05-24T09:39:45;19.00;99.90
14172;DHT22;7165;52.388;4.928;2023-05-24T09:42:13;19.00;99.90
14172;DHT22;7165;52.388;4.928;2023-05-24T09:44:40;19.20;99.90
14172;DHT22;7165;52.388;4.928;2023-05-24T09:47:09;19.40;99.90
14172;DHT22;7165;52.388;4.928;2023-05-24T09:49:36;19.20;99.90
14172;DHT22;7165;52.388;4.928;2023-05-24T09:52:03;18.70;99.90
14172;DHT22;7165;52.388;4.928;2023-05-24T09:54:30;18.40;99.90
14172;DHT22;7165;52.388;4.928;2023-05-24T09:56:58;18.00;99.90
14172;DHT22;7165;52.388;4.928;2023-05-24T09:59:25;17.90;99.90
14172;DHT22;7165;52.388;4.928;2023-05-24T10:01:55;17.60;99.90
14172;DHT22;7165;52.388;4.928;2023-05-24T10:04:32;17.40;99.90
14172;DHT22;7165;52.388;4.928;2023-05-24T10:06:59;17.30;99.90
14172;DHT22;7165;52.388;4.928;2023-05-24T10:09:26;17.30;99.90
14172;DHT22;7165;52.388;4.928;2023-05-24T10:11:59;17.30;99.90
14172;DHT22;7165;52.388;4.928;2023-05-24T10:14:26;17.40;99.90
14172;DHT22;7165;52.388;4.928;2023-05-24T10:16:54;17.40;99.90
14172;DHT22;7165;52.388;4.928;2023-05-24T10:19:21;17.50;99.90
14172;DHT22;7165;52.388;4.928;2023-05-24T10:21:49;17.50;99.90
14172;DHT22;7165;52.388;4.928;2023-05-24T10:24:18;17.50;99.90
14172;DHT22;7165;52.388;4.928;2023-05-24T10:26:48;17.40;99.90
14172;DHT22;7165;52.388;4.928;2023-05-24T10:29:18;17.40;99.90
14172;DHT22;7165;52.388;4.928;2023-05-24T10:31:48;17.30;99.90
14172;DHT22;7165;52.388;4.928;2023-05-24T10:34:15;17.10;99.90
14172;DHT22;7165;52.388;4.928;2023-05-24T10:36:42;17.00;99.90
14172;DHT22;7165;52.388;4.928;2023-05-24T10:39:11;16.90;99.90
14172;DHT22;7165;52.388;4.928;2023-05-24T10:41:37;17.00;99.90
14172;DHT22;7165;52.388;4.928;2023-05-24T10:44:04;17.30;99.90
14172;DHT22;7165;52.388;4.928;2023-05-24T10:46:35;17.50;99.90
14172;DHT22;7165;52.388;4.928;2023-05-24T10:49:02;17.50;99.90
14172;DHT22;7165;52.388;4.928;2023-05-24T10:51:32;17.60;99.90
14172;DHT22;7165;52.388;4.928;2023-05-24T10:54:16;17.60;99.90
14172;DHT22;7165;52.388;4.928;2023-05-24T10:56:43;17.90;99.90
14172;DHT22;7165;52.388;4.928;2023-05-24T10:59:24;17.90;99.90
14172;DHT22;7165;52.388;4.928;2023-05-24T11:01:53;17.80;99.90
14172;DHT22;7165;52.388;4.928;2023-05-24T11:04:20;17.80;99.90
14172;DHT22;7165;52.388;4.928;2023-05-24T11:06:47;17.90;99.90
14172;DHT22;7165;52.388;4.928;2023-05-24T11:09:16;17.90;99.90
14172;DHT22;7165;52.388;4.928;2023-05-24T11:11:45;17.90;99.90
14172;DHT22;7165;52.388;4.928;2023-05-24T11:14:12;18.00;99.90
14172;DHT22;7165;52.388;4.928;2023-05-24T11:16:39;18.00;99.90
14172;DHT22;7165;52.388;4.928;2023-05-24T11:19:10;18.20;99.90
14172;DHT22;7165;52.388;4.928;2023-05-24T11:21:37;18.20;99.90
14172;DHT22;7165;52.388;4.928;2023-05-24T11:24:05;18.10;99.90
14172;DHT22;7165;52.388;4.928;2023-05-24T11:26:33;17.90;99.90
14172;DHT22;7165;52.388;4.928;2023-05-24T11:29:00;17.80;99.90
14172;DHT22;7165;52.388;4.928;2023-05-24T11:31:26;17.60;99.90
14172;DHT22;7165;52.388;4.928;2023-05-24T11:33:53;17.50;99.90
14172;DHT22;7165;52.388;4.928;2023-05-24T11:36:22;17.50;99.90
14172;DHT22;7165;52.388;4.928;2023-05-24T11:38:49;17.50;99.90
14172;DHT22;7165;52.388;4.928;2023-05-24T11:41:19;17.60;99.90
14172;DHT22;7165;52.388;4.928;2023-05-24T11:43:47;17.70;99.90
14172;DHT22;7165;52.388;4.928;2023-05-24T11:46:14;17.70;99.90
14172;DHT22;7165;52.388;4.928;2023-05-24T11:48:40;17.60;99.90
14172;DHT22;7165;52.388;4.928;2023-05-24T11:51:08;17.70;99.90
14172;DHT22;7165;52.388;4.928;2023-05-24T11:53:35;17.70;99.90
14172;DHT22;7165;52.388;4.928;2023-05-24T11:56:02;17.80;99.90
14172;DHT22;7165;52.388;4.928;2023-05-24T11:58:31;17.80;99.90
14172;DHT22;7165;52.388;4.928;2023-05-24T12:01:03;17.70;99.90
14172;DHT22;7165;52.388;4.928;2023-05-24T12:03:30;17.60;99.90
14172;DHT22;7165;52.388;4.928;2023-05-24T12:05:57;17.60;99.90
14172;DHT22;7165;52.388;4.928;2023-05-24T12:08:24;17.40;99.90
14172;DHT22;7165;52.388;4.928;2023-05-24T12:10:50;17.40;99.90
14172;DHT22;7165;52.388;4.928;2023-05-24T12:13:18;17.40;99.90
14172;DHT22;7165;52.388;4.928;2023-05-24T12:15:47;17.40;99.90
14172;DHT22;7165;52.388;4.928;2023-05-24T12:18:18;17.30;99.90
14172;DHT22;7165;52.388;4.928;2023-05-24T12:20:45;17.20;99.90
14172;DHT22;7165;52.388;4.928;2023-05-24T12:23:11;17.10;99.90
14172;DHT22;7165;52.388;4.928;2023-05-24T12:25:39;17.10;99.90
14172;DHT22;7165;52.388;4.928;2023-05-24T12:28:06;16.90;99.90
14172;DHT22;7165;52.388;4.928;2023-05-24T12:30:32;16.80;99.90
14172;DHT22;7165;52.388;4.928;2023-05-24T12:32:59;16.90;99.90
14172;DHT22;7165;52.388;4.928;2023-05-24T12:35:27;17.00;99.90
14172;DHT22;7165;52.388;4.928;2023-05-24T12:37:57;17.20;99.90
14172;DHT22;7165;52.388;4.928;2023-05-24T12:40:24;17.30;99.90
14172;DHT22;7165;52.388;4.928;2023-05-24T12:42:50;17.50;99.90
14172;DHT22;7165;52.388;4.928;2023-05-24T12:45:19;17.40;99.90
14172;DHT22;7165;52.388;4.928;2023-05-24T12:47:50;17.30;99.90
14172;DHT22;7165;52.388;4.928;2023-05-24T12:50:16;17.10;99.90
14172;DHT22;7165;52.388;4.928;2023-05-24T12:52:44;17.10;99.90
14172;DHT22;7165;52.388;4.928;2023-05-24T12:55:12;17.20;99.90
14172;DHT22;7165;52.388;4.928;2023-05-24T12:57:39;17.10;99.90
14172;DHT22;7165;52.388;4.928;2023-05-24T13:00:06;17.10;99.90
14172;DHT22;7165;52.388;4.928;2023-05-24T13:02:33;17.10;99.90
14172;DHT22;7165;52.388;4.928;2023-05-24T13:05:00;17.10;99.90
14172;DHT22;7165;52.388;4.928;2023-05-24T13:07:28;17.00;99.90
14172;DHT22;7165;52.388;4.928;2023-05-24T13:09:56;17.00;99.90
14172;DHT22;7165;52.388;4.928;2023-05-24T13:12:24;16.90;99.90
14172;DHT22;7165;52.388;4.928;2023-05-24T13:14:50;16.90;99.90
14172;DHT22;7165;52.388;4.928;2023-05-24T13:17:17;16.80;99.90
14172;DHT22;7165;52.388;4.928;2023-05-24T13:19:44;16.70;99.90
14172;DHT22;7165;52.388;4.928;2023-05-24T13:22:11;16.70;99.90
14172;DHT22;7165;52.388;4.928;2023-05-24T13:24:38;16.80;99.90
14172;DHT22;7165;52.388;4.928;2023-05-24T13:27:06;16.90;99.90
14172;DHT22;7165;52.388;4.928;2023-05-24T13:29:32;16.90;99.90
14172;DHT22;7165;52.388;4.928;2023-05-24T13:31:59;16.80;99.90
14172;DHT22;7165;52.388;4.928;2023-05-24T13:34:26;16.70;99.90
14172;DHT22;7165;52.388;4.928;2023-05-24T13:36:52;16.70;99.90
14172;DHT22;7165;52.388;4.928;2023-05-24T13:39:19;16.70;99.90
14172;DHT22;7165;52.388;4.928;2023-05-24T13:41:46;16.60;99.90
14172;DHT22;7165;52.388;4.928;2023-05-24T13:44:14;16.60;99.90
14172;DHT22;7165;52.388;4.928;2023-05-24T13:46:41;16.60;99.90
14172;DHT22;7165;52.388;4.928;2023-05-24T13:49:08;16.60;99.90
14172;DHT22;7165;52.388;4.928;2023-05-24T13:51:35;16.60;99.90
14172;DHT22;7165;52.388;4.928;2023-05-24T13:54:02;16.60;99.90
14172;DHT22;7165;52.388;4.928;2023-05-24T13:56:29;16.60;99.90
14172;DHT22;7165;52.388;4.928;2023-05-24T13:58:57;16.50;99.90
14172;DHT22;7165;52.388;4.928;2023-05-24T14:01:25;16.50;99.90
14172;DHT22;7165;52.388;4.928;2023-05-24T14:03:51;16.60;99.90
14172;DHT22;7165;52.388;4.928;2023-05-24T14:06:19;16.80;99.90
14172;DHT22;7165;52.388;4.928;2023-05-24T14:08:46;17.00;99.90
14172;DHT22;7165;52.388;4.928;2023-05-24T14:11:12;17.10;99.90
14172;DHT22;7165;52.388;4.928;2023-05-24T14:13:40;17.20;99.90
14172;DHT22;7165;52.388;4.928;2023-05-24T14:16:06;17.20;99.90
14172;DHT22;7165;52.388;4.928;2023-05-24T14:18:34;17.30;99.90
14172;DHT22;7165;52.388;4.928;2023-05-24T14:21:01;17.40;99.90
14172;DHT22;7165;52.388;4.928;2023-05-24T14:23:28;17.50;99.90
14172;DHT22;7165;52.388;4.928;2023-05-24T14:25:56;17.60;99.90
14172;DHT22;7165;52.388;4.928;2023-05-24T14:28:22;17.60;99.90
14172;DHT22;7165;52.388;4.928;2023-05-24T14:30:49;17.70;99.90
14172;DHT22;7165;52.388;4.928;2023-05-24T14:33:15;17.60;99.90
14172;DHT22;7165;52.388;4.928;2023-05-24T14:35:43;17.80;99.90
14172;DHT22;7165;52.388;4.928;2023-05-24T14:38:10;17.90;99.90
14172;DHT22;7165;52.388;4.928;2023-05-24T14:40:37;18.00;99.90
14172;DHT22;7165;52.388;4.928;2023-05-24T14:43:04;18.10;99.90
14172;DHT22;7165;52.388;4.928;2023-05-24T14:45:31;18.10;99.90
14172;DHT22;7165;52.388;4.928;2023-05-24T14:47:58;18.20;99.90
14172;DHT22;7165;52.388;4.928;2023-05-24T14:50:25;18.20;99.90
14172;DHT22;7165;52.388;4.928;2023-05-24T14:52:52;18.20;99.90
14172;DHT22;7165;52.388;4.928;2023-05-24T14:55:19;18.10;99.90
14172;DHT22;7165;52.388;4.928;2023-05-24T14:57:46;17.90;99.90
14172;DHT22;7165;52.388;4.928;2023-05-24T15:00:13;17.80;99.90
14172;DHT22;7165;52.388;4.928;2023-05-24T15:02:40;17.70;99.90
14172;DHT22;7165;52.388;4.928;2023-05-24T15:05:07;17.70;99.90
14172;DHT22;7165;52.388;4.928;2023-05-24T15:07:33;17.50;99.90
14172;DHT22;7165;52.388;4.928;2023-05-24T15:10:01;17.50;99.90
14172;DHT22;7165;52.388;4.928;2023-05-24T15:12:28;17.60;99.90
14172;DHT22;7165;52.388;4.928;2023-05-24T15:14:55;18.00;99.90
14172;DHT22;7165;52.388;4.928;2023-05-24T15:17:21;18.70;99.90
14172;DHT22;7165;52.388;4.928;2023-05-24T15:19:48;18.90;99.90
14172;DHT22;7165;52.388;4.928;2023-05-24T15:22:14;20.00;99.90
14172;DHT22;7165;52.388;4.928;2023-05-24T15:24:41;21.50;99.90
14172;DHT22;7165;52.388;4.928;2023-05-24T15:27:09;21.20;99.90
14172;DHT22;7165;52.388;4.928;2023-05-24T15:29:35;20.40;99.90
14172;DHT22;7165;52.388;4.928;2023-05-24T15:32:02;22.00;99.90
14172;DHT22;7165;52.388;4.928;2023-05-24T15:34:29;23.00;99.90
14172;DHT22;7165;52.388;4.928;2023-05-24T15:37:02;22.30;99.90
14172;DHT22;7165;52.388;4.928;2023-05-24T15:39:29;22.20;99.90
14172;DHT22;7165;52.388;4.928;2023-05-24T15:41:55;22.30;99.90
14172;DHT22;7165;52.388;4.928;2023-05-24T15:44:23;21.80;99.90
14172;DHT22;7165;52.388;4.928;2023-05-24T15:46:50;21.80;99.90
14172;DHT22;7165;52.388;4.928;2023-05-24T15:49:16;21.20;99.90
14172;DHT22;7165;52.388;4.928;2023-05-24T15:51:43;20.60;99.90